Time;durP1;ratioP1;P1;durP2;ratioP2;P2;SDS_P1;SDS_P2;PMS_P1;PMS_P2;Temp;Humidity;BMP_temperature;BMP_pressure;BME280_temperature;BME280_humidity;BME280_pressure;Samples;Min_cycle;Max_cycle;Signal;HPM_P1;HPM_P2
2022/04/15 00:03:36;;;;;;;65.40;8.10;;;;;;;10.16;100.00;98898.97;10588826;27;20515;-66
2022/04/15 00:08:40;;;;;;;68.55;8.07;;;;;;;10.15;100.00;98892.75;10588155;27;20549;-65
2022/04/15 00:13:45;;;;;;;68.68;8.45;;;;;;;10.14;100.00;98893.75;10588666;27;20051;-67
2022/04/15 00:18:50;;;;;;;198.07;10.38;;;;;;;10.15;100.00;98883.81;10586872;27;21265;-65
2022/04/15 00:23:56;;;;;;;74.97;9.32;;;;;;;10.12;100.00;98887.66;10588790;27;20091;-65
2022/04/15 00:28:59;;;;;;;436.35;14.38;;;;;;;10.06;100.00;98907.06;10588974;27;20043;-65
2022/04/15 00:34:04;;;;;;;370.38;14.93;;;;;;;10.03;100.00;98910.91;10591518;27;20066;-65
2022/04/15 00:39:08;;;;;;;54.95;10.15;;;;;;;10.06;100.00;98904.38;10588167;27;20043;-64
2022/04/15 00:44:11;;;;;;;397.30;15.18;;;;;;;10.02;100.00;98898.44;10589471;27;20143;-64
2022/04/15 00:49:15;;;;;;;383.15;14.38;;;;;;;9.98;100.00;98898.88;10586436;27;20043;-64
2022/04/15 00:54:20;;;;;;;437.85;16.45;;;;;;;9.86;100.00;98899.03;10585109;27;20056;-65
2022/04/15 00:59:26;;;;;;;599.60;17.77;;;;;;;9.84;100.00;98900.19;10586836;27;20142;-64
2022/04/15 01:04:32;;;;;;;316.75;12.13;;;;;;;9.84;100.00;98895.66;10586573;27;20043;-65
2022/04/15 01:09:42;;;;;;;422.05;13.38;;;;;;;9.77;100.00;98894.53;10585600;27;20419;-63
2022/04/15 01:14:47;;;;;;;132.05;10.40;;;;;;;9.81;100.00;98889.72;10596345;27;20051;-64
2022/04/15 01:19:51;;;;;;;143.10;10.27;;;;;;;9.81;100.00;98900.47;10585040;27;20058;-65
2022/04/15 01:24:56;;;;;;;748.92;18.98;;;;;;;9.73;100.00;98897.66;10584867;27;20050;-64
2022/04/15 01:29:59;;;;;;;515.53;14.90;;;;;;;9.75;100.00;98890.31;10582815;27;20058;-66
2022/04/15 01:35:02;;;;;;;529.13;15.38;;;;;;;9.71;100.00;98893.28;10585721;27;20043;-64
2022/04/15 01:40:09;;;;;;;413.27;14.52;;;;;;;9.73;100.00;98890.44;10584633;27;20422;-65
2022/04/15 01:45:13;;;;;;;323.48;13.98;;;;;;;9.72;100.00;98891.41;10595032;27;20046;-68
2022/04/15 01:50:16;;;;;;;343.40;13.05;;;;;;;9.75;100.00;98890.31;10588744;27;20051;-65
2022/04/15 01:55:20;;;;;;;50.20;9.55;;;;;;;9.73;100.00;98903.03;10569222;27;20518;-64
2022/04/15 02:00:24;;;;;;;189.30;10.57;;;;;;;9.74;100.00;98893.97;10582454;27;20043;-65
2022/04/15 02:05:27;;;;;;;485.38;15.07;;;;;;;9.67;100.00;98905.31;10582353;28;20635;-65
2022/04/15 02:10:32;;;;;;;536.53;17.00;;;;;;;9.67;100.00;98907.16;10586275;28;20046;-65
2022/04/15 02:15:35;;;;;;;135.85;10.30;;;;;;;9.69;100.00;98908.72;10585342;28;20043;-65
2022/04/15 02:20:38;;;;;;;305.45;13.18;;;;;;;9.68;100.00;98906.16;10584134;28;20134;-65
2022/04/15 02:25:42;;;;;;;439.58;17.52;;;;;;;9.61;100.00;98903.19;10587215;28;20043;-64
2022/04/15 02:30:47;;;;;;;582.00;21.17;;;;;;;9.58;100.00;98910.72;10585983;27;20059;-63
2022/04/15 02:35:50;;;;;;;633.92;23.33;;;;;;;9.55;100.00;98911.81;10585491;27;20544;-64
2022/04/15 02:40:55;;;;;;;333.90;15.95;;;;;;;9.55;100.00;98923.44;10583476;28;20047;-65
2022/04/15 02:45:59;;;;;;;461.20;16.75;;;;;;;9.54;100.00;98916.38;10585209;28;20053;-64
2022/04/15 02:51:04;;;;;;;421.63;16.05;;;;;;;9.51;100.00;98911.28;10585166;28;20501;-65
2022/04/15 02:56:08;;;;;;;92.90;11.43;;;;;;;9.50;100.00;98920.31;10594189;27;20201;-65
2022/04/15 03:01:11;;;;;;;91.35;10.02;;;;;;;9.51;100.00;98911.28;10593131;27;20171;-64
2022/04/15 03:06:14;;;;;;;113.78;9.30;;;;;;;9.51;100.00;98910.44;10592915;27;20443;-64
2022/04/15 03:11:19;;;;;;;142.13;9.60;;;;;;;9.50;100.00;98914.94;10591785;27;21431;-64
2022/04/15 03:16:21;;;;;;;48.40;8.20;;;;;;;9.44;100.00;98909.28;10591572;27;20059;-63
2022/04/15 03:21:25;;;;;;;201.27;9.60;;;;;;;9.39;100.00;98909.72;10591403;27;20052;-64
2022/04/15 03:26:29;;;;;;;648.25;19.75;;;;;;;9.33;100.00;98913.81;10592996;27;20047;-64
2022/04/15 03:31:32;;;;;;;503.60;13.80;;;;;;;9.30;100.00;98913.25;10596294;27;20050;-64
2022/04/15 03:36:35;;;;;;;803.20;17.90;;;;;;;9.17;100.00;98914.38;10593068;27;20054;-62
2022/04/15 03:41:39;;;;;;;559.95;14.10;;;;;;;9.05;100.00;98910.13;10593022;27;20499;-65
2022/04/15 03:46:42;;;;;;;665.65;15.02;;;;;;;8.98;100.00;98920.56;10598455;27;20039;-65
2022/04/15 03:52:10;;;;;;;683.40;14.85;;;;;;;8.95;100.00;98923.53;10599538;27;20060;-65
2022/04/15 03:57:14;;;;;;;776.25;16.75;;;;;;;8.86;100.00;98917.19;10569572;28;20058;-62
2022/04/15 04:02:55;;;;;;;304.67;10.07;;;;;;;8.81;100.00;98914.03;10579392;28;20020;-62
2022/04/15 04:08:05;;;;;;;218.50;7.03;;;;;;;8.77;100.00;98924.22;10572964;28;20028;-66
2022/04/15 04:13:09;;;;;;;492.48;11.68;;;;;;;8.73;100.00;98921.94;10571687;28;20041;-68
2022/04/15 04:18:14;;;;;;;230.00;7.30;;;;;;;8.64;100.00;98918.25;10564922;28;20039;-62
2022/04/15 04:23:17;;;;;;;166.50;6.53;;;;;;;8.62;100.00;98921.06;10528923;27;20567;-64
2022/04/15 04:28:21;;;;;;;236.07;7.15;;;;;;;8.60;100.00;98923.03;10515596;27;20061;-63
2022/04/15 04:33:24;;;;;;;141.13;6.05;;;;;;;8.60;100.00;98928.41;10547639;28;20051;-64
2022/04/15 04:38:27;;;;;;;187.48;6.72;;;;;;;8.58;100.00;98929.53;10543894;28;20043;-63
2022/04/15 04:43:32;;;;;;;119.15;6.75;;;;;;;8.58;100.00;98949.19;10547150;28;20074;-64
2022/04/15 04:48:35;;;;;;;425.15;10.07;;;;;;;8.59;100.00;98942.81;10543733;28;20044;-64
2022/04/15 04:53:38;;;;;;;368.58;12.93;;;;;;;8.43;100.00;98954.03;10573192;27;20077;-64
2022/04/15 04:58:42;;;;;;;89.43;8.50;;;;;;;8.47;100.00;98954.63;10624365;27;20096;-64
2022/04/15 05:03:45;;;;;;;226.27;9.27;;;;;;;8.51;100.00;98964.16;10628697;27;20049;-64
2022/04/15 05:08:50;;;;;;;354.40;10.88;;;;;;;8.52;100.00;98973.03;10628027;27;20049;-64
2022/04/15 05:13:54;;;;;;;207.32;9.52;;;;;;;8.49;100.00;98974.16;10627333;27;20053;-63
2022/04/15 05:18:58;;;;;;;74.55;8.00;;;;;;;8.53;100.00;98982.78;10621053;27;20050;-63
2022/04/15 05:24:01;;;;;;;166.23;10.15;;;;;;;8.55;100.00;98989.72;10610684;27;20081;-63
2022/04/15 05:29:08;;;;;;;61.40;8.43;;;;;;;8.54;100.00;98988.03;10622228;27;20038;-64
2022/04/15 05:34:11;;;;;;;58.55;7.95;;;;;;;8.60;100.00;99005.44;10621867;27;20122;-63
2022/04/15 05:39:14;;;;;;;23.13;7.95;;;;;;;8.54;100.00;99014.88;10622625;27;20058;-64
2022/04/15 05:44:20;;;;;;;15.02;8.35;;;;;;;8.50;100.00;99024.19;10625252;27;20189;-64
2022/04/15 05:49:24;;;;;;;12.00;10.63;;;;;;;8.46;100.00;99028.97;10616048;27;20051;-65
2022/04/15 05:54:28;;;;;;;14.15;12.65;;;;;;;8.51;100.00;99033.09;10626229;27;20426;-67
2022/04/15 05:59:35;;;;;;;14.20;12.35;;;;;;;8.63;100.00;99048.16;10625460;27;21340;-66
2022/04/15 06:04:38;;;;;;;15.88;13.23;;;;;;;8.71;100.00;99052.84;10606437;27;20042;-63
2022/04/15 06:09:41;;;;;;;21.25;13.68;;;;;;;8.69;100.00;99057.50;10620945;27;20062;-65
2022/04/15 06:14:46;;;;;;;23.40;15.18;;;;;;;8.70;100.00;99070.78;10616144;27;21339;-65
2022/04/15 06:19:50;;;;;;;21.52;16.08;;;;;;;8.76;100.00;99064.06;10628789;27;20045;-63
2022/04/15 06:24:53;;;;;;;18.85;14.45;;;;;;;8.88;100.00;99076.41;10607871;27;20042;-68
2022/04/15 06:29:57;;;;;;;16.85;13.43;;;;;;;8.99;100.00;99078.16;10617934;27;20125;-66
2022/04/15 06:35:00;;;;;;;15.38;12.05;;;;;;;9.04;100.00;99084.00;10616848;27;20151;-64
2022/04/15 06:40:04;;;;;;;12.55;10.13;;;;;;;9.12;100.00;99074.38;10631438;27;20123;-61
2022/04/15 06:45:11;;;;;;;11.45;9.65;;;;;;;9.23;100.00;99075.13;10612228;27;20039;-65
2022/04/15 06:50:15;;;;;;;10.30;8.85;;;;;;;9.30;100.00;99069.22;10634280;27;20050;-64
2022/04/15 06:55:18;;;;;;;8.70;7.45;;;;;;;9.40;100.00;99076.34;10615465;27;20058;-58
2022/04/15 07:00:23;;;;;;;7.05;6.35;;;;;;;9.52;100.00;99066.28;10614756;27;20523;-62
2022/04/15 07:05:27;;;;;;;6.78;5.82;;;;;;;9.66;100.00;99066.88;10634638;27;20034;-58
2022/04/15 07:10:30;;;;;;;4.13;3.60;;;;;;;9.74;100.00;99053.56;10630482;27;20050;-61
2022/04/15 07:15:34;;;;;;;5.60;3.40;;;;;;;9.68;100.00;99035.31;10630152;27;20406;-62
2022/04/15 07:20:38;;;;;;;3.75;2.88;;;;;;;9.72;100.00;99034.03;10629437;27;20042;-63
2022/04/15 07:25:41;;;;;;;3.75;3.15;;;;;;;9.75;100.00;99043.69;10634072;27;20127;-64
2022/04/15 07:30:46;;;;;;;2.97;2.50;;;;;;;9.69;100.00;99039.72;10615004;27;20532;-64
2022/04/15 07:35:49;;;;;;;4.00;2.30;;;;;;;9.56;100.00;99038.13;10634821;27;20119;-64
2022/04/15 07:40:52;;;;;;;3.58;2.30;;;;;;;9.63;100.00;99042.94;10634469;27;20041;-64
2022/04/15 07:45:56;;;;;;;3.88;2.35;;;;;;;9.75;100.00;99054.44;10634446;27;20045;-64
2022/04/15 07:51:00;;;;;;;3.33;2.33;;;;;;;9.82;100.00;99042.09;10630255;27;20039;-64
2022/04/15 07:56:03;;;;;;;11.82;8.48;;;;;;;9.75;100.00;99063.34;10628310;27;20083;-64
2022/04/15 08:01:09;;;;;;;15.05;9.77;;;;;;;9.29;100.00;99078.25;10630848;27;20477;-64
2022/04/15 08:06:12;;;;;;;14.23;9.25;;;;;;;9.10;100.00;99087.97;10632601;27;20035;-65
2022/04/15 08:11:16;;;;;;;12.73;9.27;;;;;;;9.01;100.00;99091.44;10630092;27;20031;-61
2022/04/15 08:16:21;;;;;;;12.82;9.10;;;;;;;9.02;100.00;99112.84;10629461;27;20053;-64
2022/04/15 08:21:24;;;;;;;14.02;9.63;;;;;;;9.03;100.00;99111.84;10627964;27;20046;-62
2022/04/15 08:26:27;;;;;;;13.93;9.32;;;;;;;8.94;100.00;99118.88;10626645;27;20053;-67
2022/04/15 08:31:31;;;;;;;11.98;8.65;;;;;;;8.96;100.00;99121.41;10625200;27;20043;-64
2022/04/15 08:36:35;;;;;;;11.65;7.88;;;;;;;9.10;100.00;99129.13;10628309;27;20045;-65
2022/04/15 08:41:42;;;;;;;13.18;7.78;;;;;;;9.07;100.00;99120.50;10626128;27;20184;-65
2022/04/15 08:46:48;;;;;;;13.07;8.10;;;;;;;9.01;100.00;99129.06;10609375;27;20043;-65
2022/04/15 08:51:51;;;;;;;13.07;8.98;;;;;;;8.93;100.00;99135.97;10628109;27;20506;-65
2022/04/15 08:56:54;;;;;;;15.68;12.32;;;;;;;8.63;100.00;99143.03;10629576;27;20247;-65
2022/04/15 09:01:58;;;;;;;13.65;10.55;;;;;;;8.59;100.00;99152.31;10627806;27;20056;-64
2022/04/15 09:07:02;;;;;;;9.68;7.70;;;;;;;8.39;100.00;99151.28;10623746;27;20590;-64
2022/04/15 09:12:15;;;;;;;8.20;6.05;;;;;;;8.35;100.00;99149.81;10627044;27;20050;-65
2022/04/15 09:17:24;;;;;;;4.78;4.10;;;;;;;8.41;100.00;99145.81;10626539;27;20150;-64
2022/04/15 09:22:27;;;;;;;4.13;3.72;;;;;;;8.47;100.00;99147.97;10627466;27;20060;-65
2022/04/15 09:27:30;;;;;;;6.18;4.10;;;;;;;8.49;100.00;99148.72;10627175;27;20043;-63
2022/04/15 09:32:35;;;;;;;5.90;4.50;;;;;;;8.58;100.00;99155.97;10623501;27;20034;-66
2022/04/15 09:37:39;;;;;;;4.85;4.32;;;;;;;8.68;100.00;99156.06;10625258;27;20050;-63
2022/04/15 09:42:46;;;;;;;4.53;4.00;;;;;;;8.80;100.00;99159.53;10604524;27;20057;-67
2022/04/15 09:47:56;;;;;;;4.53;3.90;;;;;;;8.86;100.00;99159.00;10624558;27;20608;-65
2022/04/15 09:53:11;;;;;;;5.13;3.67;;;;;;;8.69;100.00;99156.91;10627523;27;20557;-66
2022/04/15 09:58:15;;;;;;;4.45;3.75;;;;;;;8.59;100.00;99173.81;10625557;27;20065;-66
2022/04/15 10:03:23;;;;;;;4.40;3.55;;;;;;;8.37;100.00;99176.56;10625366;27;20053;-65
2022/04/15 10:08:27;;;;;;;5.38;3.85;;;;;;;8.39;100.00;99177.31;10624930;27;20047;-63
2022/04/15 10:13:30;;;;;;;3.67;3.10;;;;;;;7.95;100.00;99178.16;10622393;27;20165;-65
2022/04/15 10:18:36;;;;;;;3.75;3.10;;;;;;;8.00;100.00;99183.13;10602121;27;20254;-66
2022/04/15 10:23:39;;;;;;;3.35;3.03;;;;;;;8.05;100.00;99180.09;10626220;27;20039;-65
2022/04/15 10:28:44;;;;;;;3.55;3.10;;;;;;;8.05;100.00;99183.63;10624741;27;20099;-63
2022/04/15 10:33:49;;;;;;;3.25;2.95;;;;;;;8.19;100.00;99179.78;10627328;27;20091;-65
2022/04/15 10:39:12;;;;;;;3.47;2.88;;;;;;;8.41;100.00;99180.72;10625349;27;20074;-65
2022/04/15 10:44:25;;;;;;;2.60;2.28;;;;;;;8.36;100.00;99188.28;10608492;27;20104;-64
2022/04/15 10:49:30;;;;;;;2.60;2.40;;;;;;;8.23;100.00;99189.31;10621274;27;20053;-58
2022/04/15 10:54:42;;;;;;;2.50;2.30;;;;;;;8.07;100.00;99203.16;10620478;27;20171;-59
2022/04/15 11:05:15;;;;;;;3.17;2.40;;;;;;;8.27;100.00;99208.69;10626100;27;20116;-58
2022/04/15 11:10:40;;;;;;;3.20;2.50;;;;;;;8.18;100.00;99202.25;10622785;27;20061;-60
2022/04/15 11:15:54;;;;;;;3.70;2.63;;;;;;;8.27;100.00;99192.59;10632252;27;20046;-64
2022/04/15 11:20:59;;;;;;;3.17;2.88;;;;;;;8.23;100.00;99200.03;10629929;27;20050;-60
2022/04/15 11:26:03;;;;;;;4.53;2.80;;;;;;;8.38;100.00;99203.28;10628773;27;20057;-59
2022/04/15 11:31:19;;;;;;;3.58;2.97;;;;;;;8.41;100.00;99202.19;10630179;27;20055;-62
2022/04/15 11:36:24;;;;;;;3.85;2.90;;;;;;;8.47;100.00;99201.66;10636677;27;20042;-60
2022/04/15 11:41:28;;;;;;;2.97;2.70;;;;;;;8.59;100.00;99210.53;10636133;27;20047;-64
2022/04/15 11:46:50;;;;;;;3.20;2.90;;;;;;;8.80;100.00;99202.50;10631799;27;20039;-61
2022/04/15 11:51:58;;;;;;;3.15;2.60;;;;;;;9.01;100.00;99207.03;10629730;27;20047;-62
2022/04/15 11:57:03;;;;;;;2.97;2.50;;;;;;;9.18;100.00;99206.44;10632219;27;20119;-64
2022/04/15 12:02:07;;;;;;;2.95;2.22;;;;;;;9.22;100.00;99202.50;10630671;27;20943;-64
2022/04/15 12:07:16;;;;;;;2.30;2.10;;;;;;;9.39;100.00;99200.16;10634631;27;20039;-63
2022/04/15 12:12:21;;;;;;;2.30;2.10;;;;;;;9.56;100.00;99198.69;10636021;27;20883;-65
2022/04/15 12:17:25;;;;;;;2.38;2.10;;;;;;;9.75;100.00;99205.97;10632491;27;20055;-63
2022/04/15 12:22:30;;;;;;;2.00;1.67;;;;;;;9.86;100.00;99199.63;10633425;27;20043;-64
2022/04/15 12:27:34;;;;;;;2.03;1.75;;;;;;;10.16;100.00;99211.31;10613161;27;20185;-64
2022/04/15 12:32:39;;;;;;;2.40;1.75;;;;;;;10.32;100.00;99205.38;10631419;27;20047;-63
2022/04/15 12:37:47;;;;;;;1.40;1.30;;;;;;;10.41;100.00;99206.41;10626252;27;20061;-63
2022/04/15 12:42:53;;;;;;;1.40;1.30;;;;;;;10.50;100.00;99207.41;10631341;27;20555;-62
2022/04/15 12:48:00;;;;;;;2.20;1.17;;;;;;;10.63;100.00;99202.59;10629653;27;20062;-65
2022/04/15 12:53:15;;;;;;;1.45;1.30;;;;;;;10.67;100.00;99204.00;10629054;27;20059;-62
2022/04/15 12:58:21;;;;;;;1.10;1.10;;;;;;;10.85;100.00;99201.44;10632096;27;20049;-63
2022/04/15 13:03:26;;;;;;;1.17;1.08;;;;;;;10.67;100.00;99203.16;10632017;27;20053;-62
2022/04/15 13:08:30;;;;;;;1.02;1.02;;;;;;;10.59;100.00;99201.16;10630930;27;20065;-63
2022/04/15 13:13:33;;;;;;;1.10;1.10;;;;;;;10.56;100.00;99202.31;10614459;27;21708;-60
2022/04/15 13:18:38;;;;;;;1.00;1.00;;;;;;;10.22;100.00;99201.81;10618065;27;20046;-64
2022/04/15 13:23:42;;;;;;;1.38;1.27;;;;;;;10.18;100.00;99204.78;10573856;22;20052;-58
2022/04/15 13:28:45;;;;;;;1.40;1.30;;;;;;;10.06;100.00;99205.91;10485539;28;20052;-59
2022/04/15 13:33:48;;;;;;;1.33;1.23;;;;;;;10.26;100.00;99187.94;10485289;28;20079;-58
2022/04/15 13:38:52;;;;;;;1.17;1.08;;;;;;;10.40;100.00;99186.72;10487557;28;20048;-58
2022/04/15 13:43:59;;;;;;;1.85;1.00;;;;;;;10.71;100.00;99200.03;10487439;28;20052;-60
2022/04/15 13:49:02;;;;;;;0.80;0.80;;;;;;;10.89;100.00;99193.91;10483059;28;20044;-61
2022/04/15 13:59:27;;;;;;;0.90;0.90;;;;;;;10.99;100.00;99196.59;10486104;28;20083;-59
2022/04/15 14:04:31;;;;;;;0.90;0.90;;;;;;;11.00;100.00;99203.69;10487025;28;20048;-58
2022/04/15 14:09:36;;;;;;;1.02;1.00;;;;;;;10.59;100.00;99220.03;10469800;28;20048;-58
2022/04/15 14:14:39;;;;;;;1.65;1.10;;;;;;;10.63;100.00;99218.78;10486575;28;20097;-57
2022/04/15 14:19:42;;;;;;;1.30;1.20;;;;;;;10.34;100.00;99222.25;10482730;28;20051;-60
2022/04/15 14:24:46;;;;;;;1.23;1.15;;;;;;;10.21;100.00;99227.03;10483714;28;20052;-57
2022/04/15 14:29:49;;;;;;;1.33;1.23;;;;;;;10.41;100.00;99219.88;10485942;28;20040;-61
2022/04/15 14:34:54;;;;;;;1.27;1.23;;;;;;;10.47;100.00;99220.16;10486082;28;20431;-59
2022/04/15 14:39:58;;;;;;;1.30;1.20;;;;;;;10.56;100.00;99228.38;10484860;28;20511;-59
2022/04/15 14:45:02;;;;;;;1.85;1.30;;;;;;;10.54;100.00;99230.38;10487303;28;21594;-58
2022/04/15 14:50:06;;;;;;;0.98;0.98;;;;;;;10.37;100.00;99240.84;10490610;28;20045;-60
2022/04/15 14:55:10;;;;;;;1.30;1.20;;;;;;;10.38;100.00;99237.19;10493294;28;20040;-57
2022/04/15 15:00:14;;;;;;;1.33;1.23;;;;;;;10.16;100.00;99241.81;10490798;28;20044;-59
2022/04/15 15:05:18;;;;;;;1.63;1.52;;;;;;;10.20;100.00;99249.56;10495145;28;20133;-59
2022/04/15 15:10:22;;;;;;;1.73;1.63;;;;;;;10.22;100.00;99247.59;10494067;28;21298;-58
2022/04/15 15:15:25;;;;;;;2.13;1.70;;;;;;;10.41;100.00;99239.56;10480775;28;20078;-60
2022/04/15 15:20:29;;;;;;;1.92;1.83;;;;;;;10.46;100.00;99244.56;10492765;28;20044;-58
2022/04/15 15:30:54;;;;;;;;;;;;;;;10.27;100.00;99239.97;10491861;28;20043;-58
2022/04/15 15:35:57;;;;;;;2.17;1.98;;;;;;;10.47;100.00;99240.84;10490471;28;19928;-60
2022/04/15 15:41:02;;;;;;;2.10;1.90;;;;;;;10.45;100.00;99243.69;10492307;28;20045;-56
2022/04/15 15:46:05;;;;;;;1.80;1.70;;;;;;;10.47;100.00;99238.16;10493453;28;20052;-59
2022/04/15 15:51:08;;;;;;;1.73;1.63;;;;;;;10.35;100.00;99242.81;10492189;28;20047;-58
2022/04/15 15:56:12;;;;;;;2.28;1.88;;;;;;;10.33;100.00;99245.66;10493534;28;20048;-60
2022/04/15 16:01:19;;;;;;;1.75;1.65;;;;;;;10.23;100.00;99249.31;10492375;28;20109;-60
2022/04/15 16:06:23;;;;;;;1.80;1.70;;;;;;;10.26;100.00;99254.44;10489732;28;20086;-59
2022/04/15 16:11:28;;;;;;;2.88;1.70;;;;;;;10.26;100.00;99249.03;10487064;28;20064;-56
2022/04/15 16:16:31;;;;;;;2.10;1.90;;;;;;;10.20;100.00;99252.28;10490149;28;20420;-56
2022/04/15 16:21:34;;;;;;;2.45;1.83;;;;;;;10.13;100.00;99255.53;10490131;28;20047;-56
2022/04/15 16:26:39;;;;;;;2.00;1.80;;;;;;;10.16;100.00;99257.09;10490177;28;20055;-58
2022/04/15 16:31:42;;;;;;;2.35;1.92;;;;;;;10.07;100.00;99253.38;10490323;28;20033;-59
2022/04/15 16:36:46;;;;;;;1.95;1.75;;;;;;;9.94;100.00;99259.00;10488210;28;20127;-58
2022/04/15 16:41:50;;;;;;;3.10;1.88;;;;;;;9.91;100.00;99277.28;10488750;28;20044;-58
2022/04/15 16:46:55;;;;;;;2.65;2.15;;;;;;;9.73;100.00;99280.59;10486587;28;20048;-58
2022/04/15 16:51:59;;;;;;;2.72;2.10;;;;;;;9.61;100.00;99289.75;10487797;28;20137;-58
2022/04/15 17:02:30;;;;;;;3.03;2.58;;;;;;;9.34;100.00;99304.63;10443949;28;20190;-58
2022/04/15 17:07:33;;;;;;;2.72;2.42;;;;;;;9.24;100.00;99308.06;10487502;28;20506;-56
2022/04/15 17:12:38;;;;;;;3.42;3.13;;;;;;;9.14;100.00;99307.16;10487470;28;20054;-57
2022/04/15 17:17:42;;;;;;;4.13;3.55;;;;;;;8.98;100.00;99312.97;10465207;28;20075;-58
2022/04/15 17:22:50;;;;;;;5.10;3.78;;;;;;;8.89;100.00;99317.28;10488911;28;20052;-55
2022/04/15 17:27:56;;;;;;;7.60;4.10;;;;;;;8.90;100.00;99310.91;10488967;28;20082;-58
2022/04/15 17:32:59;;;;;;;5.60;3.63;;;;;;;8.88;100.00;99312.03;10488337;28;20051;-57
2022/04/15 17:38:02;;;;;;;4.72;3.65;;;;;;;8.88;100.00;99323.63;10486392;28;20044;-58
2022/04/15 17:43:08;;;;;;;5.55;3.70;;;;;;;8.85;100.00;99317.66;10487733;28;20050;-55
2022/04/15 17:48:11;;;;;;;5.00;3.92;;;;;;;8.76;100.00;99343.50;10487207;28;20194;-58
2022/04/15 17:53:16;;;;;;;5.57;4.25;;;;;;;8.78;100.00;99342.38;10485710;28;20131;-55
2022/04/15 17:58:20;;;;;;;5.28;4.03;;;;;;;8.81;100.00;99346.63;10461717;28;20058;-56
2022/04/15 18:03:23;;;;;;;5.75;4.30;;;;;;;8.71;100.00;99361.81;10487426;28;20050;-53
2022/04/15 18:08:26;;;;;;;6.18;4.82;;;;;;;8.56;100.00;99385.41;10486291;28;20051;-57
2022/04/15 18:13:30;;;;;;;8.18;5.40;;;;;;;8.48;100.00;99386.03;10487614;28;20063;-57
2022/04/15 18:18:40;;;;;;;7.07;6.00;;;;;;;8.40;100.00;99389.28;10488173;28;20161;-57
2022/04/15 18:23:43;;;;;;;8.25;6.30;;;;;;;8.35;100.00;99404.91;10492819;28;20048;-57
2022/04/15 18:28:47;;;;;;;9.45;6.80;;;;;;;8.34;100.00;99413.97;10492295;28;20145;-55
2022/04/15 18:33:50;;;;;;;7.78;5.90;;;;;;;8.33;100.00;99425.69;10478206;28;20850;-58
2022/04/15 18:38:53;;;;;;;8.15;6.78;;;;;;;8.28;100.00;99434.09;10494896;28;20048;-55
2022/04/15 18:43:58;;;;;;;9.77;7.13;;;;;;;8.26;100.00;99435.19;10495449;28;20041;-58
2022/04/15 18:54:22;;;;;;;12.23;9.10;;;;;;;8.11;100.00;99464.97;10493879;28;20055;-57
2022/04/15 18:59:26;;;;;;;12.18;8.13;;;;;;;7.94;100.00;99478.81;10490884;28;20046;-58
2022/04/15 19:04:29;;;;;;;11.85;7.97;;;;;;;7.83;100.00;99474.28;10492861;28;20048;-57
2022/04/15 19:09:33;;;;;;;8.77;6.10;;;;;;;7.68;100.00;99474.50;10476071;28;20451;-57
2022/04/15 19:14:37;;;;;;;9.48;6.90;;;;;;;7.69;100.00;99478.88;10480310;28;20052;-57
2022/04/15 19:19:43;;;;;;;12.00;7.78;;;;;;;7.62;100.00;99480.31;10493854;28;20044;-57
2022/04/15 19:24:46;;;;;;;9.73;7.40;;;;;;;7.60;100.00;99487.59;10523173;22;20139;-83
2022/04/15 19:35:58;;;;;;;8.65;6.18;;;;;;;7.55;100.00;99479.91;10530278;28;20102;-84
2022/04/15 19:41:08;;;;;;;9.85;6.78;;;;;;;7.56;100.00;99483.47;10531758;28;20040;-84
2022/04/15 19:46:11;;;;;;;8.93;6.18;;;;;;;7.55;100.00;99485.28;10541339;28;20074;-83
2022/04/15 19:51:15;;;;;;;9.50;6.25;;;;;;;7.59;100.00;99496.63;10534003;28;20040;-83
2022/04/15 20:01:59;;;;;;;10.65;6.03;;;;;;;7.65;100.00;99500.66;10556750;28;20033;-83
2022/04/15 20:07:04;;;;;;;8.77;6.53;;;;;;;7.60;100.00;99492.97;10556695;27;21402;-82
2022/04/15 20:12:08;;;;;;;8.57;6.18;;;;;;;7.65;100.00;99506.91;10542425;28;20071;-83
2022/04/15 20:17:11;;;;;;;7.45;5.40;;;;;;;7.64;100.00;99501.66;10537090;28;20093;-83
2022/04/15 20:22:16;;;;;;;6.38;5.28;;;;;;;7.61;100.00;99512.63;10544715;28;20071;-82
2022/04/15 20:27:19;;;;;;;7.65;5.75;;;;;;;7.62;100.00;99512.50;10540962;28;20075;-82
2022/04/15 20:32:22;;;;;;;7.05;5.57;;;;;;;7.66;100.00;99513.09;10542120;28;20048;-83
2022/04/15 20:37:26;;;;;;;8.25;5.90;;;;;;;7.66;100.00;99513.97;10539104;28;20101;-84
2022/04/15 20:42:30;;;;;;;7.90;6.55;;;;;;;7.66;100.00;99513.97;10554715;28;20082;-82
2022/04/15 20:47:33;;;;;;;9.75;7.03;;;;;;;7.62;100.00;99512.50;10540631;28;20112;-82
2022/04/15 20:53:09;;;;;;;11.02;8.90;;;;;;;7.56;100.00;99513.81;10534751;28;20143;-83
2022/04/15 20:58:15;;;;;;;14.20;10.70;;;;;;;7.58;100.00;99521.75;10540689;28;20040;-82
2022/04/15 21:03:18;;;;;;;14.95;11.35;;;;;;;7.45;100.00;99532.53;10557979;27;20036;-82
2022/04/15 21:08:31;;;;;;;13.48;9.93;;;;;;;7.28;100.00;99533.78;10556327;28;20060;-83
2022/04/15 21:13:34;;;;;;;11.60;9.07;;;;;;;6.99;100.00;99535.91;10539530;28;20051;-83
2022/04/15 21:18:47;;;;;;;12.38;9.13;;;;;;;6.90;100.00;99538.28;10536971;28;20134;-82
2022/04/15 21:31:43;;;;;;;8.48;7.28;;;;;;;6.77;100.00;99532.09;10536736;28;20048;-83
2022/04/15 21:36:49;;;;;;;10.57;8.55;;;;;;;6.78;100.00;99536.47;10550112;28;20147;-83
2022/04/15 21:41:56;;;;;;;8.82;7.93;;;;;;;6.74;100.00;99545.69;10533924;28;20484;-82
2022/04/15 21:46:59;;;;;;;6.78;6.07;;;;;;;6.72;100.00;99543.13;10525698;28;20043;-81
2022/04/15 21:57:25;;;;;;;5.70;5.10;;;;;;;6.64;100.00;99537.47;10531412;28;20143;-82
2022/04/15 22:02:28;;;;;;;5.43;4.85;;;;;;;6.62;100.00;99542.91;10537314;28;20584;-82
2022/04/15 22:07:32;;;;;;;7.13;5.35;;;;;;;6.63;100.00;99551.81;10537964;28;21377;-82
2022/04/15 22:12:35;;;;;;;6.00;5.35;;;;;;;6.57;100.00;99550.44;10531575;28;20127;-82
2022/04/15 22:17:38;;;;;;;6.22;5.50;;;;;;;6.53;100.00;99550.72;10539425;28;20058;-82
2022/04/15 22:22:43;;;;;;;6.53;5.60;;;;;;;6.47;100.00;99558.25;10545264;28;20059;-82
2022/04/15 22:27:48;;;;;;;6.63;5.60;;;;;;;6.42;100.00;99564.88;10552118;28;20036;-81
2022/04/15 22:32:51;;;;;;;7.80;5.90;;;;;;;6.37;100.00;99565.19;10535237;28;20044;-82
2022/04/15 22:37:55;;;;;;;7.70;5.90;;;;;;;6.37;100.00;99556.31;10523625;28;20044;-81
2022/04/15 22:43:03;;;;;;;8.10;6.28;;;;;;;6.26;100.00;99565.09;10549045;28;20119;-82
2022/04/15 22:48:20;;;;;;;6.47;5.50;;;;;;;6.23;100.00;99573.31;10535661;28;20135;-82
2022/04/15 22:53:26;;;;;;;5.53;4.82;;;;;;;6.20;100.00;99560.13;10537204;28;20044;-82
2022/04/15 22:58:29;;;;;;;6.50;5.47;;;;;;;6.12;100.00;99563.34;10533551;28;20135;-83
2022/04/15 23:03:36;;;;;;;10.00;6.03;;;;;;;6.06;100.00;99569.97;10535620;28;20040;-82
2022/04/15 23:08:44;;;;;;;7.05;6.03;;;;;;;5.96;100.00;99579.53;10540981;28;20071;-83
2022/04/15 23:13:48;;;;;;;8.20;6.20;;;;;;;5.96;100.00;99585.78;10546254;28;20040;-83
2022/04/15 23:18:52;;;;;;;7.47;6.40;;;;;;;5.96;100.00;99595.59;10540329;28;20048;-83
2022/04/15 23:23:57;;;;;;;8.80;7.00;;;;;;;5.93;100.00;99603.84;10545338;28;20123;-83
2022/04/15 23:29:00;;;;;;;9.57;7.43;;;;;;;5.88;100.00;99609.47;10563528;28;20040;-83
2022/04/15 23:34:03;;;;;;;9.90;7.53;;;;;;;5.78;100.00;99603.91;10542276;28;20040;-83
2022/04/15 23:39:08;;;;;;;10.68;7.50;;;;;;;5.80;100.00;99620.72;10537008;28;20070;-83
2022/04/15 23:44:11;;;;;;;12.88;7.90;;;;;;;5.79;100.00;99605.63;10536759;28;20066;-83
2022/04/15 23:49:14;;;;;;;9.10;7.00;;;;;;;5.77;100.00;99606.66;10537557;28;20047;-83
2022/04/15 23:54:19;;;;;;;10.30;7.22;;;;;;;5.81;100.00;99617.06;10543054;28;20067;-84
2022/04/15 23:59:23;;;;;;;10.77;7.93;;;;;;;5.76;100.00;99627.19;10557900;28;20075;-83
